sensor_id;sensor_type;location;lat;lon;timestamp;P1;durP1;ratioP1;P2;durP2;ratioP2
72524;SDS011;60547;48.502;8.996;2022-08-25T00:01:11;4.90;;;2.50;;
72524;SDS011;60547;48.502;8.996;2022-08-25T00:03:38;3.80;;;2.08;;
72524;SDS011;60547;48.502;8.996;2022-08-25T00:06:05;5.30;;;2.38;;
72524;SDS011;60547;48.502;8.996;2022-08-25T00:08:32;4.80;;;2.50;;
72524;SDS011;60547;48.502;8.996;2022-08-25T00:11:00;7.20;;;3.28;;
72524;SDS011;60547;48.502;8.996;2022-08-25T00:13:27;4.25;;;2.50;;
72524;SDS011;60547;48.502;8.996;2022-08-25T00:15:53;4.53;;;2.28;;
72524;SDS011;60547;48.502;8.996;2022-08-25T00:18:19;3.78;;;2.15;;
72524;SDS011;60547;48.502;8.996;2022-08-25T00:20:44;4.38;;;2.30;;
72524;SDS011;60547;48.502;8.996;2022-08-25T00:23:10;4.22;;;2.45;;
72524;SDS011;60547;48.502;8.996;2022-08-25T00:25:35;4.90;;;2.47;;
72524;SDS011;60547;48.502;8.996;2022-08-25T00:28:01;5.15;;;2.75;;
72524;SDS011;60547;48.502;8.996;2022-08-25T00:30:26;4.43;;;2.45;;
72524;SDS011;60547;48.502;8.996;2022-08-25T00:32:52;5.22;;;3.30;;
72524;SDS011;60547;48.502;8.996;2022-08-25T00:35:17;5.00;;;2.40;;
72524;SDS011;60547;48.502;8.996;2022-08-25T00:37:44;4.65;;;2.38;;
72524;SDS011;60547;48.502;8.996;2022-08-25T00:40:10;5.45;;;2.70;;
72524;SDS011;60547;48.502;8.996;2022-08-25T00:42:36;3.65;;;2.35;;
72524;SDS011;60547;48.502;8.996;2022-08-25T00:45:03;4.28;;;2.42;;
72524;SDS011;60547;48.502;8.996;2022-08-25T00:47:31;4.53;;;2.40;;
72524;SDS011;60547;48.502;8.996;2022-08-25T00:49:57;4.72;;;2.50;;
72524;SDS011;60547;48.502;8.996;2022-08-25T00:52:30;4.85;;;2.58;;
72524;SDS011;60547;48.502;8.996;2022-08-25T00:55:43;4.65;;;2.33;;
72524;SDS011;60547;48.502;8.996;2022-08-25T00:57:51;4.13;;;2.30;;
72524;SDS011;60547;48.502;8.996;2022-08-25T01:00:23;4.95;;;2.60;;
72524;SDS011;60547;48.502;8.996;2022-08-25T01:02:51;4.63;;;2.45;;
72524;SDS011;60547;48.502;8.996;2022-08-25T01:05:17;4.72;;;2.45;;
72524;SDS011;60547;48.502;8.996;2022-08-25T01:07:43;5.03;;;2.83;;
72524;SDS011;60547;48.502;8.996;2022-08-25T01:10:10;4.45;;;2.47;;
72524;SDS011;60547;48.502;8.996;2022-08-25T01:12:37;4.80;;;2.40;;
72524;SDS011;60547;48.502;8.996;2022-08-25T01:15:05;4.53;;;2.78;;
72524;SDS011;60547;48.502;8.996;2022-08-25T01:17:33;4.75;;;2.78;;
72524;SDS011;60547;48.502;8.996;2022-08-25T01:20:20;4.88;;;2.70;;
72524;SDS011;60547;48.502;8.996;2022-08-25T01:22:48;6.22;;;2.80;;
72524;SDS011;60547;48.502;8.996;2022-08-25T01:25:41;4.47;;;2.65;;
72524;SDS011;60547;48.502;8.996;2022-08-25T01:28:15;4.38;;;2.50;;
72524;SDS011;60547;48.502;8.996;2022-08-25T01:30:41;5.15;;;2.40;;
72524;SDS011;60547;48.502;8.996;2022-08-25T01:33:08;5.70;;;2.60;;
72524;SDS011;60547;48.502;8.996;2022-08-25T01:35:35;4.13;;;2.38;;
72524;SDS011;60547;48.502;8.996;2022-08-25T01:38:02;4.80;;;2.70;;
72524;SDS011;60547;48.502;8.996;2022-08-25T01:40:29;5.90;;;2.50;;
72524;SDS011;60547;48.502;8.996;2022-08-25T01:45:40;4.78;;;2.65;;
72524;SDS011;60547;48.502;8.996;2022-08-25T01:48:09;4.35;;;2.30;;
72524;SDS011;60547;48.502;8.996;2022-08-25T01:50:35;4.28;;;2.40;;
72524;SDS011;60547;48.502;8.996;2022-08-25T01:53:11;4.05;;;2.13;;
72524;SDS011;60547;48.502;8.996;2022-08-25T01:55:42;4.68;;;2.67;;
72524;SDS011;60547;48.502;8.996;2022-08-25T01:58:22;8.45;;;2.80;;
72524;SDS011;60547;48.502;8.996;2022-08-25T02:00:51;4.10;;;2.35;;
72524;SDS011;60547;48.502;8.996;2022-08-25T02:03:21;4.72;;;2.88;;
72524;SDS011;60547;48.502;8.996;2022-08-25T02:05:48;4.63;;;2.55;;
72524;SDS011;60547;48.502;8.996;2022-08-25T02:08:14;4.78;;;3.08;;
72524;SDS011;60547;48.502;8.996;2022-08-25T02:10:39;4.53;;;2.85;;
72524;SDS011;60547;48.502;8.996;2022-08-25T02:13:05;4.82;;;2.90;;
72524;SDS011;60547;48.502;8.996;2022-08-25T02:15:32;4.65;;;2.72;;
72524;SDS011;60547;48.502;8.996;2022-08-25T02:18:01;4.93;;;2.85;;
72524;SDS011;60547;48.502;8.996;2022-08-25T02:20:26;4.88;;;2.63;;
72524;SDS011;60547;48.502;8.996;2022-08-25T02:22:52;5.10;;;2.80;;
72524;SDS011;60547;48.502;8.996;2022-08-25T02:25:18;5.30;;;3.20;;
72524;SDS011;60547;48.502;8.996;2022-08-25T02:27:44;4.93;;;2.97;;
72524;SDS011;60547;48.502;8.996;2022-08-25T02:30:11;4.40;;;2.85;;
72524;SDS011;60547;48.502;8.996;2022-08-25T02:32:38;4.38;;;2.80;;
72524;SDS011;60547;48.502;8.996;2022-08-25T02:35:04;5.00;;;2.88;;
72524;SDS011;60547;48.502;8.996;2022-08-25T02:37:31;4.75;;;2.70;;
72524;SDS011;60547;48.502;8.996;2022-08-25T02:39:56;5.32;;;3.00;;
72524;SDS011;60547;48.502;8.996;2022-08-25T02:42:22;5.40;;;2.65;;
72524;SDS011;60547;48.502;8.996;2022-08-25T02:44:48;4.63;;;2.60;;
72524;SDS011;60547;48.502;8.996;2022-08-25T02:47:14;4.32;;;2.80;;
72524;SDS011;60547;48.502;8.996;2022-08-25T02:49:40;4.45;;;2.47;;
72524;SDS011;60547;48.502;8.996;2022-08-25T02:52:06;4.68;;;2.97;;
72524;SDS011;60547;48.502;8.996;2022-08-25T02:54:32;5.35;;;2.97;;
72524;SDS011;60547;48.502;8.996;2022-08-25T02:56:58;4.70;;;2.90;;
72524;SDS011;60547;48.502;8.996;2022-08-25T02:59:24;4.57;;;2.78;;
72524;SDS011;60547;48.502;8.996;2022-08-25T03:01:49;4.50;;;2.60;;
72524;SDS011;60547;48.502;8.996;2022-08-25T03:04:15;5.40;;;3.00;;
72524;SDS011;60547;48.502;8.996;2022-08-25T03:06:40;5.55;;;3.17;;
72524;SDS011;60547;48.502;8.996;2022-08-25T03:09:06;5.00;;;2.47;;
72524;SDS011;60547;48.502;8.996;2022-08-25T03:11:32;5.07;;;2.67;;
72524;SDS011;60547;48.502;8.996;2022-08-25T03:13:58;4.57;;;2.72;;
72524;SDS011;60547;48.502;8.996;2022-08-25T03:16:24;5.55;;;3.00;;
72524;SDS011;60547;48.502;8.996;2022-08-25T03:18:49;5.00;;;2.97;;
72524;SDS011;60547;48.502;8.996;2022-08-25T03:21:15;5.68;;;2.80;;
72524;SDS011;60547;48.502;8.996;2022-08-25T03:23:41;5.22;;;3.05;;
72524;SDS011;60547;48.502;8.996;2022-08-25T03:26:10;5.55;;;3.05;;
72524;SDS011;60547;48.502;8.996;2022-08-25T03:28:54;6.18;;;2.90;;
72524;SDS011;60547;48.502;8.996;2022-08-25T03:31:21;6.38;;;2.95;;
72524;SDS011;60547;48.502;8.996;2022-08-25T03:33:47;5.20;;;3.15;;
72524;SDS011;60547;48.502;8.996;2022-08-25T03:36:13;5.47;;;3.25;;
72524;SDS011;60547;48.502;8.996;2022-08-25T03:38:39;4.63;;;2.83;;
72524;SDS011;60547;48.502;8.996;2022-08-25T03:41:16;4.68;;;2.60;;
72524;SDS011;60547;48.502;8.996;2022-08-25T03:43:43;6.70;;;3.22;;
72524;SDS011;60547;48.502;8.996;2022-08-25T03:46:15;6.38;;;3.20;;
72524;SDS011;60547;48.502;8.996;2022-08-25T03:48:51;4.93;;;2.95;;
72524;SDS011;60547;48.502;8.996;2022-08-25T03:51:21;5.93;;;2.83;;
72524;SDS011;60547;48.502;8.996;2022-08-25T03:53:46;4.90;;;2.90;;
72524;SDS011;60547;48.502;8.996;2022-08-25T03:56:12;5.80;;;3.10;;
72524;SDS011;60547;48.502;8.996;2022-08-25T03:58:37;5.05;;;3.03;;
72524;SDS011;60547;48.502;8.996;2022-08-25T04:01:02;5.00;;;3.05;;
72524;SDS011;60547;48.502;8.996;2022-08-25T04:03:28;4.60;;;2.70;;
72524;SDS011;60547;48.502;8.996;2022-08-25T04:05:53;4.80;;;2.97;;
72524;SDS011;60547;48.502;8.996;2022-08-25T04:08:18;5.38;;;3.10;;
72524;SDS011;60547;48.502;8.996;2022-08-25T04:10:44;5.18;;;3.00;;
72524;SDS011;60547;48.502;8.996;2022-08-25T04:13:10;5.05;;;2.83;;
72524;SDS011;60547;48.502;8.996;2022-08-25T04:15:36;5.65;;;3.17;;
72524;SDS011;60547;48.502;8.996;2022-08-25T04:18:06;4.80;;;2.75;;
72524;SDS011;60547;48.502;8.996;2022-08-25T04:20:32;6.32;;;3.70;;
72524;SDS011;60547;48.502;8.996;2022-08-25T04:22:57;6.75;;;3.20;;
72524;SDS011;60547;48.502;8.996;2022-08-25T04:25:25;6.38;;;3.10;;
72524;SDS011;60547;48.502;8.996;2022-08-25T04:27:51;5.50;;;3.05;;
72524;SDS011;60547;48.502;8.996;2022-08-25T04:30:17;5.85;;;2.90;;
72524;SDS011;60547;48.502;8.996;2022-08-25T04:32:43;6.85;;;2.97;;
72524;SDS011;60547;48.502;8.996;2022-08-25T04:35:08;5.97;;;3.15;;
72524;SDS011;60547;48.502;8.996;2022-08-25T04:37:34;6.25;;;3.22;;
72524;SDS011;60547;48.502;8.996;2022-08-25T04:40:00;5.90;;;2.90;;
72524;SDS011;60547;48.502;8.996;2022-08-25T04:42:26;6.45;;;3.03;;
72524;SDS011;60547;48.502;8.996;2022-08-25T04:44:51;5.22;;;3.00;;
72524;SDS011;60547;48.502;8.996;2022-08-25T04:47:18;5.85;;;2.97;;
72524;SDS011;60547;48.502;8.996;2022-08-25T04:49:43;6.18;;;3.40;;
72524;SDS011;60547;48.502;8.996;2022-08-25T04:52:09;5.22;;;3.20;;
72524;SDS011;60547;48.502;8.996;2022-08-25T04:54:34;7.57;;;3.13;;
72524;SDS011;60547;48.502;8.996;2022-08-25T04:56:59;6.18;;;3.30;;
72524;SDS011;60547;48.502;8.996;2022-08-25T04:59:25;6.80;;;3.38;;
72524;SDS011;60547;48.502;8.996;2022-08-25T05:01:50;5.05;;;2.92;;
72524;SDS011;60547;48.502;8.996;2022-08-25T05:04:18;7.10;;;3.30;;
72524;SDS011;60547;48.502;8.996;2022-08-25T05:06:45;6.00;;;3.03;;
72524;SDS011;60547;48.502;8.996;2022-08-25T05:09:11;5.40;;;2.92;;
72524;SDS011;60547;48.502;8.996;2022-08-25T05:11:36;5.82;;;3.22;;
72524;SDS011;60547;48.502;8.996;2022-08-25T05:14:02;6.10;;;3.55;;
72524;SDS011;60547;48.502;8.996;2022-08-25T05:16:28;5.80;;;3.03;;
72524;SDS011;60547;48.502;8.996;2022-08-25T05:18:54;5.40;;;3.22;;
72524;SDS011;60547;48.502;8.996;2022-08-25T05:21:21;5.72;;;3.05;;
72524;SDS011;60547;48.502;8.996;2022-08-25T05:23:49;6.53;;;3.08;;
72524;SDS011;60547;48.502;8.996;2022-08-25T05:26:19;4.88;;;3.22;;
72524;SDS011;60547;48.502;8.996;2022-08-25T05:28:46;5.63;;;2.88;;
72524;SDS011;60547;48.502;8.996;2022-08-25T05:31:13;8.35;;;5.13;;
72524;SDS011;60547;48.502;8.996;2022-08-25T05:33:39;7.70;;;4.72;;
72524;SDS011;60547;48.502;8.996;2022-08-25T05:36:06;6.18;;;3.72;;
72524;SDS011;60547;48.502;8.996;2022-08-25T05:38:34;7.55;;;4.05;;
72524;SDS011;60547;48.502;8.996;2022-08-25T05:41:03;6.20;;;4.00;;
72524;SDS011;60547;48.502;8.996;2022-08-25T05:43:31;6.85;;;3.92;;
72524;SDS011;60547;48.502;8.996;2022-08-25T05:45:57;6.40;;;3.70;;
72524;SDS011;60547;48.502;8.996;2022-08-25T05:48:24;6.70;;;3.47;;
72524;SDS011;60547;48.502;8.996;2022-08-25T05:50:51;5.43;;;3.40;;
72524;SDS011;60547;48.502;8.996;2022-08-25T05:53:18;6.70;;;3.60;;
72524;SDS011;60547;48.502;8.996;2022-08-25T05:55:45;7.22;;;4.07;;
72524;SDS011;60547;48.502;8.996;2022-08-25T05:58:11;6.88;;;3.67;;
72524;SDS011;60547;48.502;8.996;2022-08-25T06:00:37;6.63;;;3.78;;
72524;SDS011;60547;48.502;8.996;2022-08-25T06:03:03;5.63;;;3.28;;
72524;SDS011;60547;48.502;8.996;2022-08-25T06:05:29;7.18;;;3.67;;
72524;SDS011;60547;48.502;8.996;2022-08-25T06:07:56;8.55;;;3.97;;
72524;SDS011;60547;48.502;8.996;2022-08-25T06:10:23;7.25;;;3.60;;
72524;SDS011;60547;48.502;8.996;2022-08-25T06:12:49;8.75;;;3.88;;
72524;SDS011;60547;48.502;8.996;2022-08-25T06:15:16;6.93;;;3.47;;
72524;SDS011;60547;48.502;8.996;2022-08-25T06:17:43;6.35;;;3.38;;
72524;SDS011;60547;48.502;8.996;2022-08-25T06:20:09;6.15;;;3.63;;
72524;SDS011;60547;48.502;8.996;2022-08-25T06:22:39;7.30;;;3.13;;
72524;SDS011;60547;48.502;8.996;2022-08-25T06:25:06;5.63;;;3.67;;
72524;SDS011;60547;48.502;8.996;2022-08-25T06:27:33;6.30;;;3.28;;
72524;SDS011;60547;48.502;8.996;2022-08-25T06:29:59;6.47;;;3.45;;
72524;SDS011;60547;48.502;8.996;2022-08-25T06:32:32;5.85;;;3.70;;
72524;SDS011;60547;48.502;8.996;2022-08-25T06:35:00;7.40;;;4.00;;
72524;SDS011;60547;48.502;8.996;2022-08-25T06:37:25;6.00;;;3.42;;
72524;SDS011;60547;48.502;8.996;2022-08-25T06:39:51;6.30;;;3.50;;
72524;SDS011;60547;48.502;8.996;2022-08-25T06:42:16;5.25;;;3.47;;
72524;SDS011;60547;48.502;8.996;2022-08-25T06:44:42;6.80;;;3.35;;
72524;SDS011;60547;48.502;8.996;2022-08-25T06:47:07;6.45;;;3.88;;
72524;SDS011;60547;48.502;8.996;2022-08-25T06:49:33;6.00;;;3.80;;
72524;SDS011;60547;48.502;8.996;2022-08-25T06:51:59;7.15;;;4.10;;
72524;SDS011;60547;48.502;8.996;2022-08-25T06:54:25;6.07;;;3.60;;
72524;SDS011;60547;48.502;8.996;2022-08-25T06:56:50;7.97;;;3.45;;
72524;SDS011;60547;48.502;8.996;2022-08-25T06:59:16;5.90;;;3.53;;
72524;SDS011;60547;48.502;8.996;2022-08-25T07:01:41;6.72;;;4.07;;
72524;SDS011;60547;48.502;8.996;2022-08-25T07:04:07;7.38;;;3.88;;
72524;SDS011;60547;48.502;8.996;2022-08-25T07:06:33;6.20;;;4.60;;
72524;SDS011;60547;48.502;8.996;2022-08-25T07:08:59;7.85;;;5.00;;
72524;SDS011;60547;48.502;8.996;2022-08-25T07:11:27;9.30;;;4.45;;
72524;SDS011;60547;48.502;8.996;2022-08-25T07:13:53;6.53;;;3.67;;
72524;SDS011;60547;48.502;8.996;2022-08-25T07:16:19;6.95;;;3.60;;
72524;SDS011;60547;48.502;8.996;2022-08-25T07:18:45;5.93;;;3.70;;
72524;SDS011;60547;48.502;8.996;2022-08-25T07:21:11;8.07;;;4.10;;
72524;SDS011;60547;48.502;8.996;2022-08-25T07:23:38;7.30;;;3.33;;
72524;SDS011;60547;48.502;8.996;2022-08-25T07:26:12;6.13;;;3.50;;
72524;SDS011;60547;48.502;8.996;2022-08-25T07:28:40;5.88;;;3.88;;
72524;SDS011;60547;48.502;8.996;2022-08-25T07:31:06;6.10;;;3.47;;
72524;SDS011;60547;48.502;8.996;2022-08-25T07:33:32;9.00;;;3.55;;
72524;SDS011;60547;48.502;8.996;2022-08-25T07:35:57;6.05;;;3.80;;
72524;SDS011;60547;48.502;8.996;2022-08-25T07:38:23;7.13;;;4.00;;
72524;SDS011;60547;48.502;8.996;2022-08-25T07:40:49;5.95;;;3.72;;
72524;SDS011;60547;48.502;8.996;2022-08-25T07:43:18;6.43;;;3.33;;
72524;SDS011;60547;48.502;8.996;2022-08-25T07:45:45;7.03;;;3.45;;
72524;SDS011;60547;48.502;8.996;2022-08-25T07:48:11;6.65;;;3.50;;
72524;SDS011;60547;48.502;8.996;2022-08-25T07:50:38;6.65;;;3.40;;
72524;SDS011;60547;48.502;8.996;2022-08-25T07:53:06;6.82;;;3.65;;
72524;SDS011;60547;48.502;8.996;2022-08-25T07:55:33;6.28;;;4.13;;
72524;SDS011;60547;48.502;8.996;2022-08-25T07:58:01;7.05;;;3.38;;
72524;SDS011;60547;48.502;8.996;2022-08-25T08:00:27;7.68;;;3.88;;
72524;SDS011;60547;48.502;8.996;2022-08-25T08:02:54;6.55;;;3.47;;
72524;SDS011;60547;48.502;8.996;2022-08-25T08:05:20;6.70;;;3.65;;
72524;SDS011;60547;48.502;8.996;2022-08-25T08:07:46;8.82;;;4.18;;
72524;SDS011;60547;48.502;8.996;2022-08-25T08:10:12;6.97;;;4.20;;
72524;SDS011;60547;48.502;8.996;2022-08-25T08:12:38;6.20;;;4.20;;
72524;SDS011;60547;48.502;8.996;2022-08-25T08:15:04;5.80;;;3.85;;
72524;SDS011;60547;48.502;8.996;2022-08-25T08:17:30;6.18;;;3.67;;
72524;SDS011;60547;48.502;8.996;2022-08-25T08:19:56;6.90;;;4.10;;
72524;SDS011;60547;48.502;8.996;2022-08-25T08:22:22;6.78;;;4.00;;
72524;SDS011;60547;48.502;8.996;2022-08-25T08:24:48;7.80;;;4.50;;
72524;SDS011;60547;48.502;8.996;2022-08-25T08:27:13;8.52;;;4.20;;
72524;SDS011;60547;48.502;8.996;2022-08-25T08:29:39;5.82;;;3.65;;
72524;SDS011;60547;48.502;8.996;2022-08-25T08:32:07;6.40;;;4.22;;
72524;SDS011;60547;48.502;8.996;2022-08-25T08:34:34;7.43;;;3.85;;
72524;SDS011;60547;48.502;8.996;2022-08-25T08:37:00;7.65;;;4.13;;
72524;SDS011;60547;48.502;8.996;2022-08-25T08:39:27;6.25;;;4.32;;
72524;SDS011;60547;48.502;8.996;2022-08-25T08:41:58;6.30;;;4.30;;
72524;SDS011;60547;48.502;8.996;2022-08-25T08:47:45;6.32;;;3.88;;
72524;SDS011;60547;48.502;8.996;2022-08-25T08:53:13;5.80;;;3.97;;
72524;SDS011;60547;48.502;8.996;2022-08-25T08:55:50;7.43;;;3.83;;
72524;SDS011;60547;48.502;8.996;2022-08-25T08:58:24;6.95;;;4.43;;
72524;SDS011;60547;48.502;8.996;2022-08-25T09:00:56;6.50;;;4.13;;
72524;SDS011;60547;48.502;8.996;2022-08-25T09:03:35;6.38;;;3.60;;
72524;SDS011;60547;48.502;8.996;2022-08-25T09:06:06;6.38;;;4.03;;
72524;SDS011;60547;48.502;8.996;2022-08-25T09:08:35;6.65;;;4.00;;
72524;SDS011;60547;48.502;8.996;2022-08-25T09:11:06;5.97;;;4.03;;
72524;SDS011;60547;48.502;8.996;2022-08-25T09:24:53;9.85;;;4.50;;
72524;SDS011;60547;48.502;8.996;2022-08-25T09:30:21;5.78;;;3.50;;
72524;SDS011;60547;48.502;8.996;2022-08-25T09:32:48;7.03;;;4.28;;
72524;SDS011;60547;48.502;8.996;2022-08-25T09:35:19;5.93;;;3.78;;
72524;SDS011;60547;48.502;8.996;2022-08-25T09:40:23;7.10;;;4.22;;
72524;SDS011;60547;48.502;8.996;2022-08-25T09:42:51;7.03;;;4.03;;
72524;SDS011;60547;48.502;8.996;2022-08-25T09:45:33;7.20;;;3.72;;
72524;SDS011;60547;48.502;8.996;2022-08-25T09:48:18;5.55;;;3.38;;
72524;SDS011;60547;48.502;8.996;2022-08-25T09:50:48;5.57;;;3.60;;
72524;SDS011;60547;48.502;8.996;2022-08-25T09:53:15;9.65;;;3.90;;
72524;SDS011;60547;48.502;8.996;2022-08-25T09:55:42;5.20;;;3.45;;
72524;SDS011;60547;48.502;8.996;2022-08-25T09:58:26;6.80;;;3.70;;
72524;SDS011;60547;48.502;8.996;2022-08-25T10:01:03;5.63;;;3.75;;
72524;SDS011;60547;48.502;8.996;2022-08-25T10:03:29;6.65;;;3.80;;
72524;SDS011;60547;48.502;8.996;2022-08-25T10:06:00;6.05;;;3.40;;
72524;SDS011;60547;48.502;8.996;2022-08-25T10:08:33;7.53;;;4.63;;
72524;SDS011;60547;48.502;8.996;2022-08-25T10:11:03;7.00;;;3.90;;
72524;SDS011;60547;48.502;8.996;2022-08-25T10:13:34;5.80;;;3.45;;
72524;SDS011;60547;48.502;8.996;2022-08-25T10:16:44;5.40;;;3.53;;
72524;SDS011;60547;48.502;8.996;2022-08-25T10:19:09;5.47;;;3.17;;
72524;SDS011;60547;48.502;8.996;2022-08-25T10:22:11;6.53;;;3.80;;
72524;SDS011;60547;48.502;8.996;2022-08-25T10:24:47;6.07;;;3.40;;
72524;SDS011;60547;48.502;8.996;2022-08-25T10:35:12;5.70;;;3.38;;
72524;SDS011;60547;48.502;8.996;2022-08-25T10:37:54;5.90;;;3.47;;
72524;SDS011;60547;48.502;8.996;2022-08-25T10:45:31;6.80;;;3.33;;
72524;SDS011;60547;48.502;8.996;2022-08-25T10:51:01;5.93;;;3.92;;
72524;SDS011;60547;48.502;8.996;2022-08-25T10:56:34;5.03;;;3.55;;
72524;SDS011;60547;48.502;8.996;2022-08-25T11:07:33;5.13;;;3.10;;
72524;SDS011;60547;48.502;8.996;2022-08-25T11:10:04;5.78;;;3.00;;
72524;SDS011;60547;48.502;8.996;2022-08-25T11:12:44;5.80;;;3.10;;
72524;SDS011;60547;48.502;8.996;2022-08-25T11:15:16;4.75;;;3.10;;
72524;SDS011;60547;48.502;8.996;2022-08-25T11:17:46;5.75;;;3.08;;
72524;SDS011;60547;48.502;8.996;2022-08-25T11:20:20;5.00;;;3.03;;
72524;SDS011;60547;48.502;8.996;2022-08-25T11:25:46;4.43;;;2.85;;
72524;SDS011;60547;48.502;8.996;2022-08-25T11:30:54;4.68;;;2.65;;
72524;SDS011;60547;48.502;8.996;2022-08-25T11:33:21;5.03;;;2.63;;
72524;SDS011;60547;48.502;8.996;2022-08-25T11:35:58;4.60;;;2.63;;
72524;SDS011;60547;48.502;8.996;2022-08-25T11:46:43;4.72;;;2.50;;
72524;SDS011;60547;48.502;8.996;2022-08-25T11:57:41;5.35;;;2.70;;
72524;SDS011;60547;48.502;8.996;2022-08-25T12:00:13;4.20;;;2.58;;
72524;SDS011;60547;48.502;8.996;2022-08-25T12:02:58;8.00;;;2.88;;
72524;SDS011;60547;48.502;8.996;2022-08-25T12:05:48;5.68;;;2.30;;
72524;SDS011;60547;48.502;8.996;2022-08-25T12:08:25;4.50;;;2.38;;
72524;SDS011;60547;48.502;8.996;2022-08-25T12:14:14;4.43;;;2.25;;
72524;SDS011;60547;48.502;8.996;2022-08-25T12:19:24;3.80;;;2.10;;
72524;SDS011;60547;48.502;8.996;2022-08-25T12:21:53;4.30;;;2.42;;
72524;SDS011;60547;48.502;8.996;2022-08-25T12:27:25;4.53;;;2.20;;
72524;SDS011;60547;48.502;8.996;2022-08-25T12:35:31;4.70;;;2.05;;
72524;SDS011;60547;48.502;8.996;2022-08-25T12:43:09;3.28;;;2.00;;
72524;SDS011;60547;48.502;8.996;2022-08-25T12:45:37;3.88;;;2.28;;
72524;SDS011;60547;48.502;8.996;2022-08-25T12:51:14;4.82;;;2.10;;
72524;SDS011;60547;48.502;8.996;2022-08-25T12:53:43;3.50;;;2.10;;
72524;SDS011;60547;48.502;8.996;2022-08-25T12:59:31;4.28;;;2.47;;
72524;SDS011;60547;48.502;8.996;2022-08-25T13:07:42;3.65;;;2.10;;
72524;SDS011;60547;48.502;8.996;2022-08-25T13:13:03;4.63;;;2.13;;
72524;SDS011;60547;48.502;8.996;2022-08-25T13:20:52;3.58;;;1.98;;
72524;SDS011;60547;48.502;8.996;2022-08-25T13:23:33;3.97;;;2.13;;
72524;SDS011;60547;48.502;8.996;2022-08-25T13:26:02;3.47;;;2.00;;
72524;SDS011;60547;48.502;8.996;2022-08-25T13:28:30;3.42;;;1.85;;
72524;SDS011;60547;48.502;8.996;2022-08-25T13:31:01;3.83;;;1.77;;
72524;SDS011;60547;48.502;8.996;2022-08-25T13:33:56;3.58;;;2.05;;
72524;SDS011;60547;48.502;8.996;2022-08-25T13:36:23;3.55;;;2.15;;
72524;SDS011;60547;48.502;8.996;2022-08-25T13:39:16;3.63;;;2.10;;
72524;SDS011;60547;48.502;8.996;2022-08-25T13:41:47;3.55;;;2.10;;
72524;SDS011;60547;48.502;8.996;2022-08-25T13:44:16;3.28;;;1.83;;
72524;SDS011;60547;48.502;8.996;2022-08-25T13:46:42;4.15;;;2.10;;
72524;SDS011;60547;48.502;8.996;2022-08-25T13:49:09;3.50;;;2.03;;
72524;SDS011;60547;48.502;8.996;2022-08-25T13:51:36;3.95;;;2.17;;
72524;SDS011;60547;48.502;8.996;2022-08-25T13:54:05;3.85;;;2.10;;
72524;SDS011;60547;48.502;8.996;2022-08-25T13:56:36;3.95;;;1.95;;
72524;SDS011;60547;48.502;8.996;2022-08-25T13:59:04;3.50;;;2.03;;
72524;SDS011;60547;48.502;8.996;2022-08-25T14:01:43;4.68;;;1.85;;
72524;SDS011;60547;48.502;8.996;2022-08-25T14:09:37;5.25;;;2.00;;
72524;SDS011;60547;48.502;8.996;2022-08-25T14:12:04;4.20;;;1.80;;
72524;SDS011;60547;48.502;8.996;2022-08-25T14:14:31;3.83;;;1.95;;
72524;SDS011;60547;48.502;8.996;2022-08-25T14:17:03;3.25;;;2.00;;
72524;SDS011;60547;48.502;8.996;2022-08-25T14:19:32;3.35;;;1.80;;
72524;SDS011;60547;48.502;8.996;2022-08-25T14:21:58;3.40;;;1.92;;
72524;SDS011;60547;48.502;8.996;2022-08-25T14:24:26;3.20;;;1.90;;
72524;SDS011;60547;48.502;8.996;2022-08-25T14:26:55;4.22;;;2.00;;
72524;SDS011;60547;48.502;8.996;2022-08-25T14:29:21;3.63;;;1.95;;
72524;SDS011;60547;48.502;8.996;2022-08-25T14:31:47;3.50;;;1.90;;
72524;SDS011;60547;48.502;8.996;2022-08-25T14:34:15;2.78;;;1.60;;
72524;SDS011;60547;48.502;8.996;2022-08-25T14:36:44;3.75;;;1.90;;
72524;SDS011;60547;48.502;8.996;2022-08-25T14:39:10;4.03;;;2.08;;
72524;SDS011;60547;48.502;8.996;2022-08-25T14:41:37;3.90;;;2.08;;
72524;SDS011;60547;48.502;8.996;2022-08-25T14:44:05;3.67;;;2.03;;
72524;SDS011;60547;48.502;8.996;2022-08-25T14:46:32;4.25;;;2.03;;
72524;SDS011;60547;48.502;8.996;2022-08-25T14:49:01;3.75;;;2.00;;
72524;SDS011;60547;48.502;8.996;2022-08-25T14:51:30;5.70;;;1.90;;
72524;SDS011;60547;48.502;8.996;2022-08-25T14:53:59;4.63;;;2.00;;
72524;SDS011;60547;48.502;8.996;2022-08-25T14:56:27;3.60;;;1.90;;
72524;SDS011;60547;48.502;8.996;2022-08-25T14:58:53;4.68;;;1.90;;
72524;SDS011;60547;48.502;8.996;2022-08-25T15:01:19;3.47;;;1.98;;
72524;SDS011;60547;48.502;8.996;2022-08-25T15:03:46;3.20;;;1.75;;
72524;SDS011;60547;48.502;8.996;2022-08-25T15:06:15;4.75;;;2.05;;
72524;SDS011;60547;48.502;8.996;2022-08-25T15:08:41;3.95;;;2.20;;
72524;SDS011;60547;48.502;8.996;2022-08-25T15:11:26;3.67;;;1.73;;
72524;SDS011;60547;48.502;8.996;2022-08-25T15:13:52;3.60;;;1.95;;
72524;SDS011;60547;48.502;8.996;2022-08-25T15:18:58;3.70;;;2.10;;
72524;SDS011;60547;48.502;8.996;2022-08-25T15:21:24;3.60;;;1.92;;
72524;SDS011;60547;48.502;8.996;2022-08-25T15:23:50;3.67;;;2.05;;
72524;SDS011;60547;48.502;8.996;2022-08-25T15:26:15;3.92;;;1.98;;
72524;SDS011;60547;48.502;8.996;2022-08-25T15:28:43;3.50;;;1.90;;
72524;SDS011;60547;48.502;8.996;2022-08-25T15:31:15;3.40;;;2.10;;
72524;SDS011;60547;48.502;8.996;2022-08-25T15:33:42;3.88;;;1.80;;
72524;SDS011;60547;48.502;8.996;2022-08-25T15:36:08;5.50;;;1.83;;
72524;SDS011;60547;48.502;8.996;2022-08-25T15:38:37;3.60;;;2.20;;
72524;SDS011;60547;48.502;8.996;2022-08-25T15:41:04;3.10;;;1.90;;
72524;SDS011;60547;48.502;8.996;2022-08-25T15:43:30;4.55;;;2.00;;
72524;SDS011;60547;48.502;8.996;2022-08-25T15:45:56;3.40;;;1.80;;
72524;SDS011;60547;48.502;8.996;2022-08-25T15:48:22;3.58;;;2.10;;
72524;SDS011;60547;48.502;8.996;2022-08-25T15:50:51;4.10;;;2.03;;
72524;SDS011;60547;48.502;8.996;2022-08-25T15:53:19;3.17;;;2.00;;
72524;SDS011;60547;48.502;8.996;2022-08-25T15:55:50;4.65;;;2.33;;
72524;SDS011;60547;48.502;8.996;2022-08-25T15:58:16;4.18;;;2.10;;
72524;SDS011;60547;48.502;8.996;2022-08-25T16:00:42;5.57;;;2.10;;
72524;SDS011;60547;48.502;8.996;2022-08-25T16:03:09;3.40;;;2.15;;
72524;SDS011;60547;48.502;8.996;2022-08-25T16:05:40;2.92;;;1.70;;
72524;SDS011;60547;48.502;8.996;2022-08-25T16:08:07;3.35;;;2.00;;
72524;SDS011;60547;48.502;8.996;2022-08-25T16:10:33;3.05;;;1.70;;
72524;SDS011;60547;48.502;8.996;2022-08-25T16:13:00;4.05;;;1.90;;
72524;SDS011;60547;48.502;8.996;2022-08-25T16:15:26;3.55;;;2.20;;
72524;SDS011;60547;48.502;8.996;2022-08-25T16:17:52;3.25;;;1.80;;
72524;SDS011;60547;48.502;8.996;2022-08-25T16:20:17;3.38;;;1.80;;
72524;SDS011;60547;48.502;8.996;2022-08-25T16:22:44;4.72;;;2.30;;
72524;SDS011;60547;48.502;8.996;2022-08-25T16:25:10;6.07;;;2.10;;
72524;SDS011;60547;48.502;8.996;2022-08-25T16:27:36;4.43;;;2.13;;
72524;SDS011;60547;48.502;8.996;2022-08-25T16:30:01;4.93;;;2.25;;
72524;SDS011;60547;48.502;8.996;2022-08-25T16:32:27;3.20;;;1.90;;
72524;SDS011;60547;48.502;8.996;2022-08-25T16:34:52;3.55;;;2.20;;
72524;SDS011;60547;48.502;8.996;2022-08-25T16:37:18;3.97;;;1.95;;
72524;SDS011;60547;48.502;8.996;2022-08-25T16:39:43;4.80;;;2.22;;
72524;SDS011;60547;48.502;8.996;2022-08-25T16:42:09;3.80;;;2.05;;
72524;SDS011;60547;48.502;8.996;2022-08-25T16:44:36;3.97;;;2.10;;
72524;SDS011;60547;48.502;8.996;2022-08-25T16:47:01;4.05;;;2.03;;
72524;SDS011;60547;48.502;8.996;2022-08-25T16:49:27;3.75;;;1.83;;
72524;SDS011;60547;48.502;8.996;2022-08-25T16:51:52;3.45;;;1.90;;
72524;SDS011;60547;48.502;8.996;2022-08-25T16:54:18;3.10;;;1.88;;
72524;SDS011;60547;48.502;8.996;2022-08-25T16:57:02;6.25;;;2.17;;
72524;SDS011;60547;48.502;8.996;2022-08-25T16:59:28;4.28;;;1.85;;